Time;durP1;ratioP1;P1;durP2;ratioP2;P2;SDS_P1;SDS_P2;PMS_P1;PMS_P2;Temp;Humidity;BMP_temperature;BMP_pressure;BME280_temperature;BME280_humidity;BME280_pressure;Samples;Min_cycle;Max_cycle;Signal;HPM_P1;HPM_P2
2023/01/14 00:01:17;;;;;;;13.87;1.63;;;;;;;;;;6242754;22;20375;-75
2023/01/14 00:03:43;;;;;;;5.00;1.27;;;;;;;;;;6242823;22;20362;-75
2023/01/14 00:06:10;;;;;;;4.60;1.67;;;;;;;;;;6242754;22;20431;-74
2023/01/14 00:08:35;;;;;;;6.63;1.57;;;;;;;;;;6241734;22;20139;-75
2023/01/14 00:11:05;;;;;;;14.47;2.40;;;;;;;;;;6242188;22;20464;-75
2023/01/14 00:13:34;;;;;;;7.23;1.30;;;;;;;;;;6242253;22;20204;-75
2023/01/14 00:16:00;;;;;;;5.67;1.57;;;;;;;;;;6242263;22;21164;-75
2023/01/14 00:18:25;;;;;;;8.47;1.93;;;;;;;;;;6240506;23;20378;-74
2023/01/14 00:21:01;;;;;;;6.73;1.97;;;;;;;;;;6242024;22;20237;-75
2023/01/14 00:23:27;;;;;;;8.03;1.93;;;;;;;;;;6242423;22;20594;-75
2023/01/14 00:25:53;;;;;;;7.83;2.50;;;;;;;;;;6240072;23;20386;-75
2023/01/14 00:28:18;;;;;;;7.30;2.03;;;;;;;;;;6240760;22;20358;-74
2023/01/14 00:30:44;;;;;;;7.10;1.63;;;;;;;;;;6239839;22;20494;-74
2023/01/14 00:33:09;;;;;;;4.23;1.43;;;;;;;;;;6238901;23;20243;-74
2023/01/14 00:35:34;;;;;;;8.80;1.67;;;;;;;;;;6241543;22;20150;-75
2023/01/14 00:38:00;;;;;;;4.87;1.50;;;;;;;;;;6240303;23;20165;-75
2023/01/14 00:40:25;;;;;;;6.80;1.20;;;;;;;;;;6240569;22;20218;-75
2023/01/14 00:42:50;;;;;;;4.43;1.40;;;;;;;;;;6240800;23;20161;-75
2023/01/14 00:45:16;;;;;;;1.60;0.90;;;;;;;;;;6238446;22;20481;-75
2023/01/14 00:47:41;;;;;;;2.80;0.97;;;;;;;;;;6238867;23;20155;-75
2023/01/14 00:50:07;;;;;;;6.00;1.20;;;;;;;;;;6240829;22;20157;-75
2023/01/14 00:52:32;;;;;;;5.30;1.07;;;;;;;;;;6242699;22;20477;-76
2023/01/14 00:54:57;;;;;;;8.77;1.27;;;;;;;;;;6241821;23;20163;-75
2023/01/14 00:57:22;;;;;;;3.13;1.10;;;;;;;;;;6237557;23;20236;-75
2023/01/14 00:59:48;;;;;;;3.20;0.80;;;;;;;;;;6241745;23;20572;-75
2023/01/14 01:02:13;;;;;;;8.17;1.70;;;;;;;;;;6242304;22;20174;-76
2023/01/14 01:04:38;;;;;;;7.80;1.43;;;;;;;;;;6242791;23;20232;-76
2023/01/14 01:07:05;;;;;;;2.93;1.17;;;;;;;;;;6242484;23;20147;-75
2023/01/14 01:09:30;;;;;;;7.67;1.80;;;;;;;;;;6241013;22;20155;-75
2023/01/14 01:11:55;;;;;;;5.40;1.20;;;;;;;;;;6242071;22;20422;-75
2023/01/14 01:14:21;;;;;;;6.17;1.20;;;;;;;;;;6242043;22;20461;-75
2023/01/14 01:16:46;;;;;;;5.13;1.20;;;;;;;;;;6242471;22;20230;-76
2023/01/14 01:19:11;;;;;;;7.90;2.00;;;;;;;;;;6239171;23;20144;-75
2023/01/14 01:21:37;;;;;;;8.63;1.70;;;;;;;;;;6240846;22;20526;-75
2023/01/14 01:24:02;;;;;;;5.63;1.63;;;;;;;;;;6242238;22;20151;-75
2023/01/14 01:26:27;;;;;;;10.50;2.47;;;;;;;;;;6238682;23;20174;-75
2023/01/14 01:28:54;;;;;;;11.90;2.30;;;;;;;;;;6240347;23;20151;-75
2023/01/14 01:31:21;;;;;;;7.63;2.60;;;;;;;;;;6238732;22;20186;-75
2023/01/14 01:33:46;;;;;;;10.07;2.77;;;;;;;;;;6242268;22;20868;-75
2023/01/14 01:36:13;;;;;;;10.87;3.10;;;;;;;;;;6240391;23;20652;-76
2023/01/14 01:38:39;;;;;;;16.00;3.60;;;;;;;;;;6239631;22;20151;-75
2023/01/14 01:41:04;;;;;;;13.90;4.43;;;;;;;;;;6239965;22;20402;-75
2023/01/14 01:43:31;;;;;;;14.93;3.93;;;;;;;;;;6239612;22;20174;-75
2023/01/14 01:45:56;;;;;;;19.40;3.20;;;;;;;;;;6241365;22;20197;-75
2023/01/14 01:48:26;;;;;;;11.17;2.93;;;;;;;;;;6239941;22;20378;-75
2023/01/14 01:50:58;;;;;;;14.60;3.40;;;;;;;;;;6240656;22;20198;-75
2023/01/14 01:53:24;;;;;;;17.43;3.60;;;;;;;;;;6241251;22;20424;-75
2023/01/14 01:55:52;;;;;;;12.30;3.20;;;;;;;;;;6239662;22;20385;-75
2023/01/14 01:58:18;;;;;;;17.20;3.20;;;;;;;;;;6238522;22;20460;-75
2023/01/14 02:00:43;;;;;;;18.30;3.47;;;;;;;;;;6238984;22;21257;-75
2023/01/14 02:03:19;;;;;;;18.10;3.73;;;;;;;;;;6239302;22;20197;-75
2023/01/14 02:05:45;;;;;;;11.03;3.00;;;;;;;;;;6239763;22;20139;-75
2023/01/14 02:08:11;;;;;;;18.60;3.20;;;;;;;;;;6238440;22;20390;-75
2023/01/14 02:10:49;;;;;;;14.50;3.57;;;;;;;;;;6239255;22;20797;-75
2023/01/14 02:13:29;;;;;;;19.00;3.17;;;;;;;;;;6240082;22;20208;-75
2023/01/14 02:15:54;;;;;;;15.97;4.00;;;;;;;;;;6240010;23;20370;-75
2023/01/14 02:18:34;;;;;;;14.40;3.63;;;;;;;;;;6239231;22;20759;-75
2023/01/14 02:21:06;;;;;;;19.13;3.30;;;;;;;;;;6241854;22;20159;-75
2023/01/14 02:23:43;;;;;;;15.53;3.13;;;;;;;;;;6240708;22;20351;-75
2023/01/14 02:26:11;;;;;;;13.33;3.30;;;;;;;;;;6241128;22;20845;-75
2023/01/14 02:28:44;;;;;;;18.20;3.73;;;;;;;;;;6240035;23;20362;-74
2023/01/14 02:31:47;;;;;;;11.53;3.23;;;;;;;;;;6240595;22;20390;-75
2023/01/14 02:34:16;;;;;;;11.13;2.53;;;;;;;;;;6146769;23;20381;-74
2023/01/14 02:36:49;;;;;;;15.37;3.93;;;;;;;;;;6147510;23;20481;-75
2023/01/14 02:39:15;;;;;;;16.37;3.33;;;;;;;;;;6193547;22;20395;-75
2023/01/14 02:44:32;;;;;;;14.10;3.23;;;;;;;;;;6238208;23;20338;-75
2023/01/14 02:47:02;;;;;;;17.00;3.43;;;;;;;;;;6240930;22;20738;-74
2023/01/14 02:49:30;;;;;;;16.47;3.60;;;;;;;;;;6237485;22;20428;-75
2023/01/14 02:51:56;;;;;;;16.47;3.47;;;;;;;;;;6239538;22;20410;-75
2023/01/14 02:54:21;;;;;;;18.80;3.73;;;;;;;;;;6240224;22;20433;-74
2023/01/14 02:56:50;;;;;;;18.63;3.03;;;;;;;;;;6238692;22;20590;-74
2023/01/14 02:59:21;;;;;;;10.97;2.70;;;;;;;;;;6239001;22;20223;-75
2023/01/14 03:02:05;;;;;;;16.60;4.00;;;;;;;;;;6237013;22;20383;-75
2023/01/14 03:04:49;;;;;;;16.13;3.47;;;;;;;;;;6237978;23;20446;-75
2023/01/14 03:07:17;;;;;;;14.23;3.10;;;;;;;;;;6239189;23;20366;-75
2023/01/14 03:09:48;;;;;;;14.07;3.63;;;;;;;;;;6238733;23;20628;-74
2023/01/14 03:12:17;;;;;;;15.70;3.13;;;;;;;;;;6239360;22;20475;-74
2023/01/14 03:14:50;;;;;;;9.93;2.93;;;;;;;;;;6239391;22;20366;-74
2023/01/14 03:17:26;;;;;;;16.57;4.20;;;;;;;;;;6238202;23;20771;-74
2023/01/14 03:19:59;;;;;;;14.90;3.00;;;;;;;;;;6239913;22;20369;-74
2023/01/14 03:22:26;;;;;;;15.40;4.43;;;;;;;;;;6238082;22;20469;-74
2023/01/14 03:24:53;;;;;;;10.20;2.70;;;;;;;;;;6236304;22;20367;-75
2023/01/14 03:27:23;;;;;;;20.60;4.40;;;;;;;;;;6237308;23;20382;-74
2023/01/14 03:29:50;;;;;;;14.03;3.50;;;;;;;;;;6239740;22;20371;-76
2023/01/14 03:32:29;;;;;;;15.80;4.27;;;;;;;;;;6239616;22;20417;-74
2023/01/14 03:35:04;;;;;;;17.53;3.90;;;;;;;;;;6240531;22;20362;-75
2023/01/14 03:37:30;;;;;;;15.00;3.10;;;;;;;;;;6239183;22;20358;-74
2023/01/14 03:39:57;;;;;;;19.57;4.30;;;;;;;;;;6239413;22;20369;-74
2023/01/14 03:42:26;;;;;;;13.77;2.97;;;;;;;;;;6237490;22;20182;-74
2023/01/14 03:44:54;;;;;;;14.93;3.10;;;;;;;;;;6239447;22;20366;-74
2023/01/14 03:47:21;;;;;;;13.00;2.60;;;;;;;;;;6239309;23;20374;-74
2023/01/14 03:49:47;;;;;;;13.10;3.73;;;;;;;;;;6237640;22;20394;-74
2023/01/14 03:52:32;;;;;;;15.90;3.47;;;;;;;;;;6239250;22;20455;-75
2023/01/14 03:55:06;;;;;;;17.30;4.17;;;;;;;;;;6236864;23;20147;-74
2023/01/14 03:58:00;;;;;;;12.73;3.43;;;;;;;;;;6237895;22;20374;-74
2023/01/14 04:00:33;;;;;;;12.43;3.70;;;;;;;;;;6221871;22;20374;-74
2023/01/14 04:03:00;;;;;;;23.30;4.30;;;;;;;;;;6235301;23;20775;-74
2023/01/14 04:05:25;;;;;;;14.57;3.03;;;;;;;;;;6239728;22;20362;-74
2023/01/14 04:07:51;;;;;;;14.80;3.20;;;;;;;;;;6238257;22;20409;-74
2023/01/14 04:10:17;;;;;;;18.83;3.27;;;;;;;;;;6239950;22;20144;-74
2023/01/14 04:15:20;;;;;;;14.00;3.30;;;;;;;;;;6241638;22;20429;-74
2023/01/14 04:15:28;;;;;;;10.43;3.20;;;;;;;;;;6241949;23;20154;-74
2023/01/14 04:17:53;;;;;;;19.40;3.50;;;;;;;;;;6240175;23;20367;-74
2023/01/14 04:20:18;;;;;;;15.57;3.30;;;;;;;;;;6241990;22;20654;-74
2023/01/14 04:22:44;;;;;;;15.60;4.10;;;;;;;;;;6242002;22;20216;-74
2023/01/14 04:25:09;;;;;;;16.63;3.80;;;;;;;;;;6240885;23;20549;-74
2023/01/14 04:27:34;;;;;;;21.63;4.30;;;;;;;;;;6240895;22;20154;-75
2023/01/14 04:29:59;;;;;;;15.30;3.87;;;;;;;;;;6242832;22;20178;-74
2023/01/14 04:32:25;;;;;;;20.60;4.00;;;;;;;;;;6241962;22;20178;-74
2023/01/14 04:34:50;;;;;;;16.97;3.30;;;;;;;;;;6243296;22;20150;-74
2023/01/14 04:37:15;;;;;;;16.97;3.53;;;;;;;;;;6242297;22;20493;-74
2023/01/14 04:39:41;;;;;;;26.73;6.00;;;;;;;;;;6240638;23;20585;-74
2023/01/14 04:42:26;;;;;;;16.23;3.73;;;;;;;;;;6241832;22;20221;-74
2023/01/14 04:44:52;;;;;;;19.93;3.40;;;;;;;;;;6242717;22;20132;-74
2023/01/14 04:47:20;;;;;;;18.27;3.37;;;;;;;;;;6242263;22;20366;-74
2023/01/14 04:49:45;;;;;;;24.00;4.43;;;;;;;;;;6241668;22;20373;-74
2023/01/14 04:52:11;;;;;;;20.33;3.80;;;;;;;;;;6241828;22;20422;-74
2023/01/14 04:54:36;;;;;;;24.37;3.20;;;;;;;;;;6242487;22;20568;-74
2023/01/14 04:57:01;;;;;;;15.80;3.30;;;;;;;;;;6240671;23;20580;-74
2023/01/14 04:59:26;;;;;;;15.70;3.43;;;;;;;;;;6240922;22;20147;-74
2023/01/14 05:01:52;;;;;;;17.97;3.53;;;;;;;;;;6242143;22;20167;-74
2023/01/14 05:04:17;;;;;;;21.30;3.60;;;;;;;;;;6242048;22;20599;-74
2023/01/14 05:06:45;;;;;;;16.63;4.00;;;;;;;;;;6238885;23;20159;-74
2023/01/14 05:09:10;;;;;;;14.13;4.00;;;;;;;;;;6239596;22;20154;-74
2023/01/14 05:11:36;;;;;;;20.03;3.70;;;;;;;;;;6239632;22;20418;-74
2023/01/14 05:14:01;;;;;;;20.30;3.90;;;;;;;;;;6238544;22;20148;-74
2023/01/14 05:16:27;;;;;;;24.23;4.30;;;;;;;;;;6236569;23;20147;-74
2023/01/14 05:18:53;;;;;;;13.33;3.13;;;;;;;;;;6238758;22;20205;-74
2023/01/14 05:21:18;;;;;;;14.77;3.10;;;;;;;;;;6241031;22;20163;-74
2023/01/14 05:23:43;;;;;;;13.40;3.83;;;;;;;;;;6241226;22;20390;-74
2023/01/14 05:26:09;;;;;;;18.17;3.30;;;;;;;;;;6240570;22;20484;-74
2023/01/14 05:28:34;;;;;;;15.63;4.40;;;;;;;;;;6238960;22;20526;-74
2023/01/14 05:31:00;;;;;;;14.07;3.83;;;;;;;;;;6240411;22;20167;-74
2023/01/14 05:33:25;;;;;;;13.23;3.43;;;;;;;;;;6241087;22;20681;-75
2023/01/14 05:35:55;;;;;;;19.60;3.63;;;;;;;;;;6238234;23;20148;-74
2023/01/14 05:38:20;;;;;;;10.50;2.90;;;;;;;;;;6237583;23;20155;-75
2023/01/14 05:40:45;;;;;;;14.13;3.60;;;;;;;;;;6233015;22;20459;-78
2023/01/14 05:45:54;;;;;;;8.47;2.70;;;;;;;;;;6241186;23;20142;-79
2023/01/14 05:48:23;;;;;;;10.20;2.80;;;;;;;;;;6239791;23;20840;-79
2023/01/14 05:50:53;;;;;;;14.63;3.20;;;;;;;;;;6234816;23;20167;-79
2023/01/14 05:53:18;;;;;;;14.63;3.17;;;;;;;;;;6240082;22;20448;-79
2023/01/14 05:55:44;;;;;;;17.73;3.43;;;;;;;;;;6240222;22;20355;-79
2023/01/14 05:58:09;;;;;;;15.70;3.50;;;;;;;;;;6237153;23;20162;-79
2023/01/14 06:06:22;;;;;;;10.10;3.00;;;;;;;;;;6241469;23;20353;-79
2023/01/14 06:09:00;;;;;;;19.53;3.17;;;;;;;;;;6240684;22;20696;-78
2023/01/14 06:11:26;;;;;;;16.37;3.70;;;;;;;;;;6241816;22;20385;-78
2023/01/14 06:13:54;;;;;;;15.97;3.40;;;;;;;;;;6241734;22;20416;-78
2023/01/14 06:16:20;;;;;;;12.70;3.23;;;;;;;;;;6242386;23;20746;-79
2023/01/14 06:18:45;;;;;;;18.70;4.10;;;;;;;;;;6239948;22;20368;-78
2023/01/14 06:21:12;;;;;;;20.63;4.20;;;;;;;;;;6241876;22;20174;-78
2023/01/14 06:23:37;;;;;;;12.93;3.40;;;;;;;;;;6241872;23;20158;-79
2023/01/14 06:26:03;;;;;;;13.13;3.07;;;;;;;;;;6242639;23;20382;-79
2023/01/14 06:28:28;;;;;;;19.27;4.20;;;;;;;;;;6245171;23;20162;-80
2023/01/14 06:30:54;;;;;;;15.30;3.97;;;;;;;;;;6250057;22;20588;-80
2023/01/14 06:33:19;;;;;;;24.90;3.70;;;;;;;;;;6249479;22;20169;-79
2023/01/14 06:35:44;;;;;;;15.30;3.43;;;;;;;;;;6246669;23;20481;-79
2023/01/14 06:38:10;;;;;;;22.63;4.40;;;;;;;;;;6246064;22;20139;-79
2023/01/14 06:40:37;;;;;;;29.03;4.50;;;;;;;;;;6242475;22;20238;-79
2023/01/14 06:43:03;;;;;;;22.43;3.67;;;;;;;;;;6243331;22;20376;-79
2023/01/14 06:45:28;;;;;;;16.27;3.43;;;;;;;;;;6241799;23;20410;-79
2023/01/14 06:47:54;;;;;;;16.00;3.60;;;;;;;;;;6240769;23;20158;-77
2023/01/14 06:50:19;;;;;;;11.90;3.57;;;;;;;;;;6242832;22;20163;-79
2023/01/14 06:52:45;;;;;;;9.90;3.80;;;;;;;;;;6241005;23;20247;-79
2023/01/14 06:55:10;;;;;;;15.40;4.03;;;;;;;;;;6240190;23;20154;-79
2023/01/14 06:57:35;;;;;;;23.50;4.37;;;;;;;;;;6239712;23;20220;-80
2023/01/14 07:00:03;;;;;;;20.50;4.00;;;;;;;;;;6239657;22;20198;-79
2023/01/14 07:02:28;;;;;;;20.83;3.70;;;;;;;;;;6241606;22;20233;-79
2023/01/14 07:04:54;;;;;;;16.63;3.53;;;;;;;;;;6241918;23;20844;-78
2023/01/14 07:07:19;;;;;;;19.00;3.50;;;;;;;;;;6244772;22;20214;-78
2023/01/14 07:09:47;;;;;;;17.23;4.57;;;;;;;;;;6252791;22;20163;-80
2023/01/14 07:12:12;;;;;;;16.20;4.90;;;;;;;;;;6250912;23;20239;-82
2023/01/14 07:14:38;;;;;;;23.30;5.33;;;;;;;;;;6248521;22;20374;-79
2023/01/14 07:17:03;;;;;;;21.67;4.83;;;;;;;;;;6239434;22;20453;-78
2023/01/14 07:19:28;;;;;;;22.93;4.60;;;;;;;;;;6238518;22;20630;-79
2023/01/14 07:21:56;;;;;;;18.40;5.57;;;;;;;;;;6240792;22;20246;-79
2023/01/14 07:24:21;;;;;;;28.23;4.93;;;;;;;;;;6241609;22;20151;-78
2023/01/14 07:26:47;;;;;;;24.40;5.57;;;;;;;;;;6237167;22;20451;-78
2023/01/14 07:29:12;;;;;;;24.63;4.83;;;;;;;;;;6235697;22;20225;-79
2023/01/14 07:31:37;;;;;;;19.60;5.50;;;;;;;;;;6239419;23;20175;-77
2023/01/14 07:34:03;;;;;;;23.57;5.73;;;;;;;;;;6235645;22;20145;-78
2023/01/14 07:36:28;;;;;;;22.53;5.33;;;;;;;;;;6248123;22;20140;-80
2023/01/14 07:38:54;;;;;;;29.30;5.57;;;;;;;;;;6241095;22;20139;-79
2023/01/14 07:41:20;;;;;;;22.93;4.90;;;;;;;;;;6246832;22;20159;-80
2023/01/14 07:43:45;;;;;;;27.47;5.77;;;;;;;;;;6243853;23;20155;-80
2023/01/14 07:46:10;;;;;;;20.77;4.50;;;;;;;;;;6245501;22;20856;-80
2023/01/14 07:48:36;;;;;;;21.20;4.90;;;;;;;;;;6242909;23;20550;-79
2023/01/14 07:51:05;;;;;;;21.80;5.03;;;;;;;;;;6244508;22;20810;-80
2023/01/14 07:53:30;;;;;;;27.40;5.73;;;;;;;;;;6246397;22;20212;-79
2023/01/14 07:55:55;;;;;;;21.93;5.30;;;;;;;;;;6248235;23;20422;-80
2023/01/14 07:58:23;;;;;;;24.97;6.20;;;;;;;;;;6246604;22;20482;-80
2023/01/14 08:00:48;;;;;;;22.10;5.70;;;;;;;;;;6247439;22;20171;-79
2023/01/14 08:03:14;;;;;;;27.63;5.87;;;;;;;;;;6245861;22;20891;-79
2023/01/14 08:05:39;;;;;;;24.80;5.93;;;;;;;;;;6246153;23;20155;-80
2023/01/14 08:08:07;;;;;;;35.60;5.90;;;;;;;;;;6240671;22;20144;-79
2023/01/14 08:10:32;;;;;;;15.40;3.80;;;;;;;;;;6244985;22;20174;-79
2023/01/14 08:12:58;;;;;;;21.60;5.33;;;;;;;;;;6244292;23;20418;-78
2023/01/14 08:15:23;;;;;;;19.03;4.63;;;;;;;;;;6245820;22;20143;-79
2023/01/14 08:17:49;;;;;;;26.10;6.17;;;;;;;;;;6248542;22;20258;-80
2023/01/14 08:20:14;;;;;;;21.47;5.37;;;;;;;;;;6249521;22;20171;-79
2023/01/14 08:22:40;;;;;;;21.10;5.30;;;;;;;;;;6249653;22;20205;-80
2023/01/14 08:25:05;;;;;;;28.87;6.00;;;;;;;;;;6252040;22;20232;-79
2023/01/14 08:27:31;;;;;;;24.63;5.73;;;;;;;;;;6247284;22;20804;-79
2023/01/14 08:29:56;;;;;;;30.17;5.73;;;;;;;;;;6245276;22;20167;-79
2023/01/14 08:32:22;;;;;;;25.20;6.50;;;;;;;;;;6254079;22;20543;-80
2023/01/14 08:34:48;;;;;;;17.67;6.03;;;;;;;;;;6245755;23;20614;-79
2023/01/14 08:37:15;;;;;;;29.97;6.17;;;;;;;;;;6245614;22;20420;-78
2023/01/14 08:39:41;;;;;;;27.93;6.33;;;;;;;;;;6242157;22;20179;-78
2023/01/14 08:42:06;;;;;;;18.27;5.40;;;;;;;;;;6247654;23;20347;-79
2023/01/14 08:44:32;;;;;;;23.53;4.80;;;;;;;;;;6250714;22;20182;-79
2023/01/14 08:46:57;;;;;;;22.93;5.60;;;;;;;;;;6240883;22;20139;-78
2023/01/14 08:49:22;;;;;;;26.37;5.70;;;;;;;;;;6237492;22;20174;-80
2023/01/14 08:51:47;;;;;;;24.17;5.60;;;;;;;;;;6239968;23;20520;-79
2023/01/14 08:54:13;;;;;;;31.30;6.83;;;;;;;;;;6239572;23;20201;-77
2023/01/14 08:56:38;;;;;;;32.20;6.70;;;;;;;;;;6239088;23;20142;-77
2023/01/14 08:59:03;;;;;;;27.20;5.70;;;;;;;;;;6229863;22;20147;-77
2023/01/14 09:01:31;;;;;;;29.97;5.60;;;;;;;;;;6239227;22;20150;-76
2023/01/14 09:04:00;;;;;;;19.47;5.10;;;;;;;;;;6238557;22;20153;-77
2023/01/14 09:06:26;;;;;;;18.97;4.73;;;;;;;;;;6239256;23;20378;-78
2023/01/14 09:17:10;;;;;;;23.50;6.50;;;;;;;;;;6241404;23;20393;-78
2023/01/14 09:19:49;;;;;;;23.67;5.00;;;;;;;;;;6240854;22;20397;-76
2023/01/14 09:22:25;;;;;;;23.83;4.70;;;;;;;;;;6241320;22;20358;-77
2023/01/14 09:24:51;;;;;;;24.17;5.87;;;;;;;;;;6239437;23;20902;-78
2023/01/14 09:27:17;;;;;;;26.43;5.40;;;;;;;;;;6245574;22;20394;-80
2023/01/14 09:29:42;;;;;;;24.37;4.73;;;;;;;;;;6244399;22;20213;-76
2023/01/14 09:32:09;;;;;;;24.03;5.27;;;;;;;;;;6238835;22;20517;-78
2023/01/14 09:34:37;;;;;;;25.00;6.07;;;;;;;;;;6237929;23;20212;-78
2023/01/14 09:37:03;;;;;;;21.70;5.33;;;;;;;;;;6241809;22;20851;-77
2023/01/14 09:39:28;;;;;;;20.13;5.03;;;;;;;;;;6240320;22;20402;-76
2023/01/14 09:41:58;;;;;;;24.87;5.43;;;;;;;;;;6237782;22;20191;-79
2023/01/14 09:44:24;;;;;;;17.97;4.20;;;;;;;;;;6238678;22;20187;-77
2023/01/14 09:46:50;;;;;;;26.37;4.60;;;;;;;;;;6238159;22;20377;-77
2023/01/14 09:49:21;;;;;;;23.13;5.10;;;;;;;;;;6231011;22;20402;-77
2023/01/14 09:51:51;;;;;;;19.90;4.53;;;;;;;;;;6245658;22;20405;-78
2023/01/14 09:54:30;;;;;;;18.77;4.57;;;;;;;;;;6260398;22;20339;-81
2023/01/14 09:57:14;;;;;;;24.10;4.20;;;;;;;;;;6263609;22;20416;-82
2023/01/14 09:59:45;;;;;;;21.80;5.10;;;;;;;;;;6255939;22;20390;-80
2023/01/14 10:02:19;;;;;;;18.83;3.80;;;;;;;;;;6249450;22;20362;-79
2023/01/14 10:04:50;;;;;;;26.87;4.77;;;;;;;;;;6239806;23;20856;-78
2023/01/14 10:07:17;;;;;;;15.67;3.70;;;;;;;;;;6243642;23;20449;-81
2023/01/14 10:09:45;;;;;;;14.07;3.90;;;;;;;;;;6250186;22;20397;-80
2023/01/14 10:12:16;;;;;;;22.27;3.93;;;;;;;;;;6244698;22;20448;-78
2023/01/14 10:14:45;;;;;;;21.33;5.33;;;;;;;;;;6250453;22;20358;-79
2023/01/14 10:17:15;;;;;;;21.03;4.40;;;;;;;;;;6250886;22;20432;-80
2023/01/14 10:19:40;;;;;;;19.33;5.37;;;;;;;;;;6250251;22;20392;-79
2023/01/14 10:22:14;;;;;;;14.73;3.50;;;;;;;;;;6250454;23;20366;-79
2023/01/14 10:24:41;;;;;;;15.27;3.90;;;;;;;;;;6239929;23;20181;-77
2023/01/14 10:27:13;;;;;;;15.63;3.93;;;;;;;;;;6243000;22;20389;-78
2023/01/14 10:29:38;;;;;;;14.50;4.07;;;;;;;;;;6239689;22;20393;-79
2023/01/14 10:32:04;;;;;;;19.13;3.90;;;;;;;;;;6247747;22;20823;-80
2023/01/14 10:34:48;;;;;;;16.33;4.73;;;;;;;;;;6239567;22;20143;-77
2023/01/14 10:37:16;;;;;;;13.70;3.90;;;;;;;;;;6250079;22;20157;-79
2023/01/14 10:39:46;;;;;;;14.90;3.80;;;;;;;;;;6246037;22;20424;-79
2023/01/14 10:42:11;;;;;;;12.60;3.67;;;;;;;;;;6246840;22;20944;-80
2023/01/14 10:44:39;;;;;;;19.93;4.17;;;;;;;;;;6245102;23;20378;-79
2023/01/14 10:47:08;;;;;;;19.47;4.30;;;;;;;;;;6240944;23;20163;-78
2023/01/14 10:49:37;;;;;;;18.40;5.60;;;;;;;;;;6239777;22;20852;-79
2023/01/14 10:52:21;;;;;;;13.60;4.17;;;;;;;;;;6238008;23;20926;-78
2023/01/14 10:54:57;;;;;;;15.70;3.57;;;;;;;;;;6234827;23;20367;-79
2023/01/14 10:57:23;;;;;;;13.17;3.33;;;;;;;;;;6241672;23;20428;-80
2023/01/14 10:59:52;;;;;;;19.33;4.20;;;;;;;;;;6242559;22;20875;-79
2023/01/14 11:02:41;;;;;;;13.60;3.63;;;;;;;;;;6242911;22;20445;-79
2023/01/14 11:05:22;;;;;;;13.60;3.40;;;;;;;;;;6255849;22;20375;-80
2023/01/14 11:07:50;;;;;;;13.27;3.60;;;;;;;;;;6246252;22;20357;-82
2023/01/14 11:10:18;;;;;;;11.87;3.47;;;;;;;;;;6244665;22;20406;-78
2023/01/14 11:12:43;;;;;;;10.87;3.23;;;;;;;;;;6255889;22;20432;-83
2023/01/14 11:15:28;;;;;;;13.53;3.07;;;;;;;;;;6255553;23;20418;-80
2023/01/14 11:18:14;;;;;;;9.10;2.67;;;;;;;;;;6250388;23;20234;-79
2023/01/14 11:20:39;;;;;;;6.93;2.57;;;;;;;;;;6249407;22;20460;-81
2023/01/14 11:23:13;;;;;;;12.53;3.20;;;;;;;;;;6249855;22;20912;-81
2023/01/14 11:25:41;;;;;;;9.60;2.97;;;;;;;;;;6252641;22;20132;-81
2023/01/14 11:28:07;;;;;;;8.00;3.10;;;;;;;;;;6246764;22;20378;-80
2023/01/14 11:30:35;;;;;;;12.80;3.37;;;;;;;;;;6247464;22;20402;-80
2023/01/14 11:33:01;;;;;;;9.80;3.60;;;;;;;;;;6251443;23;20202;-81
2023/01/14 11:35:30;;;;;;;12.63;3.90;;;;;;;;;;6246322;23;20450;-81
2023/01/14 11:37:56;;;;;;;6.90;2.87;;;;;;;;;;6247748;22;20366;-79
2023/01/14 11:41:28;;;;;;;12.17;3.70;;;;;;;;;;6248984;22;20892;-79
2023/01/14 11:43:13;;;;;;;8.70;3.13;;;;;;;;;;6248576;23;20369;-80
2023/01/14 11:45:41;;;;;;;11.83;3.50;;;;;;;;;;6247965;23;20725;-81
2023/01/14 11:48:22;;;;;;;8.53;2.97;;;;;;;;;;6252325;22;20394;-81
2023/01/14 11:50:55;;;;;;;8.53;3.30;;;;;;;;;;6255048;22;20867;-80
2023/01/14 11:53:26;;;;;;;5.80;2.57;;;;;;;;;;6253947;23;20414;-81
2023/01/14 11:55:51;;;;;;;7.43;2.30;;;;;;;;;;6251455;23;20430;-79
2023/01/14 11:58:18;;;;;;;4.90;2.37;;;;;;;;;;6246470;23;20370;-80
2023/01/14 12:01:13;;;;;;;10.20;3.30;;;;;;;;;;6251650;22;20170;-80
2023/01/14 12:03:46;;;;;;;5.37;2.40;;;;;;;;;;6255242;22;20852;-80
2023/01/14 12:06:14;;;;;;;8.20;2.87;;;;;;;;;;6253514;22;20349;-80
2023/01/14 12:08:40;;;;;;;10.83;2.60;;;;;;;;;;6247768;22;20370;-79
2023/01/14 12:11:10;;;;;;;6.70;2.43;;;;;;;;;;6256874;22;20386;-80
2023/01/14 12:19:15;;;;;;;7.13;3.00;;;;;;;;;;6255676;22;20408;-82
2023/01/14 12:21:47;;;;;;;4.80;2.17;;;;;;;;;;6256523;23;20367;-80
2023/01/14 12:24:15;;;;;;;4.57;2.03;;;;;;;;;;6254135;22;20363;-80
2023/01/14 12:26:42;;;;;;;8.30;2.40;;;;;;;;;;6258152;23;20419;-81
2023/01/14 12:29:15;;;;;;;6.93;2.13;;;;;;;;;;6257239;22;20370;-81
2023/01/14 12:31:40;;;;;;;7.10;1.80;;;;;;;;;;6259786;22;20854;-81
2023/01/14 12:34:18;;;;;;;7.50;2.00;;;;;;;;;;6259031;23;20343;-81
2023/01/14 12:36:47;;;;;;;4.57;1.80;;;;;;;;;;6256619;22;20166;-80
2023/01/14 12:47:58;;;;;;;3.47;1.90;;;;;;;;;;6260938;23;20358;-81
2023/01/14 12:50:23;;;;;;;6.23;2.00;;;;;;;;;;6256402;22;20394;-81
2023/01/14 12:52:50;;;;;;;5.40;2.00;;;;;;;;;;6257822;23;20903;-81
2023/01/14 12:55:26;;;;;;;4.73;2.10;;;;;;;;;;6259019;22;20147;-81
2023/01/14 12:57:53;;;;;;;4.83;2.53;;;;;;;;;;6257053;22;20350;-80
2023/01/14 13:00:23;;;;;;;2.47;1.67;;;;;;;;;;6256726;22;20382;-80
2023/01/14 13:02:52;;;;;;;4.60;2.20;;;;;;;;;;6257652;22;20378;-80
2023/01/14 13:05:25;;;;;;;8.37;1.80;;;;;;;;;;6257089;23;20377;-81
2023/01/14 13:07:51;;;;;;;4.40;2.17;;;;;;;;;;6252012;22;20357;-80
2023/01/14 13:10:27;;;;;;;4.13;2.10;;;;;;;;;;6254905;22;20398;-80
2023/01/14 13:12:52;;;;;;;6.03;2.13;;;;;;;;;;6253540;23;20421;-80
2023/01/14 13:15:17;;;;;;;4.07;1.63;;;;;;;;;;6256868;23;20461;-79
2023/01/14 13:17:44;;;;;;;3.93;1.70;;;;;;;;;;6255995;23;20151;-80
2023/01/14 13:20:19;;;;;;;4.77;1.50;;;;;;;;;;6257965;22;20159;-80
2023/01/14 13:22:48;;;;;;;7.07;1.47;;;;;;;;;;6251451;23;20525;-80
2023/01/14 13:25:15;;;;;;;3.47;1.67;;;;;;;;;;6255449;23;20393;-81
2023/01/14 13:27:41;;;;;;;3.30;1.70;;;;;;;;;;6254932;22;20378;-79
2023/01/14 13:30:18;;;;;;;4.43;1.97;;;;;;;;;;6252242;22;20432;-78
2023/01/14 13:32:50;;;;;;;3.60;1.47;;;;;;;;;;6247227;22;20428;-79
2023/01/14 13:35:21;;;;;;;5.23;2.00;;;;;;;;;;6256599;23;20385;-81
2023/01/14 13:37:47;;;;;;;2.53;1.60;;;;;;;;;;6244324;22;20371;-78
2023/01/14 13:40:17;;;;;;;50.00;2.90;;;;;;;;;;6238319;22;20417;-77
2023/01/14 13:42:43;;;;;;;5.73;1.97;;;;;;;;;;6239770;23;20155;-77
2023/01/14 13:45:20;;;;;;;2.60;1.77;;;;;;;;;;6240668;23;20477;-78
2023/01/14 13:47:48;;;;;;;3.17;1.47;;;;;;;;;;6230518;23;20372;-76
2023/01/14 13:50:19;;;;;;;4.63;2.20;;;;;;;;;;6236471;22;20397;-78
2023/01/14 13:52:47;;;;;;;3.23;1.50;;;;;;;;;;6238157;23;20426;-78
2023/01/14 13:55:19;;;;;;;3.80;1.60;;;;;;;;;;6239981;22;20371;-77
2023/01/14 13:57:49;;;;;;;5.77;1.43;;;;;;;;;;6233939;22;20366;-78
2023/01/14 14:00:17;;;;;;;2.80;1.47;;;;;;;;;;6241648;22;20426;-77
2023/01/14 14:02:49;;;;;;;6.50;2.00;;;;;;;;;;6237538;22;20374;-79
2023/01/14 14:05:22;;;;;;;4.97;1.83;;;;;;;;;;6242852;22;20485;-78
2023/01/14 14:07:48;;;;;;;5.83;1.37;;;;;;;;;;6242168;22;20434;-80
2023/01/14 14:10:15;;;;;;;4.10;1.90;;;;;;;;;;6240836;22;20876;-77
2023/01/14 14:15:26;;;;;;;2.67;1.67;;;;;;;;;;6243013;23;20354;-79
2023/01/14 14:17:54;;;;;;;3.90;1.57;;;;;;;;;;6242959;22;20366;-78
2023/01/14 14:20:22;;;;;;;4.77;1.37;;;;;;;;;;6239297;22;20378;-77
2023/01/14 14:22:50;;;;;;;4.17;1.40;;;;;;;;;;6238593;22;20370;-78
2023/01/14 14:25:20;;;;;;;3.13;1.40;;;;;;;;;;6235396;23;20755;-77
2023/01/14 14:27:50;;;;;;;3.10;1.30;;;;;;;;;;6238195;22;20676;-77
2023/01/14 14:30:19;;;;;;;2.97;1.43;;;;;;;;;;6240814;22;20421;-77
2023/01/14 14:32:44;;;;;;;4.67;2.50;;;;;;;;;;6243094;22;20524;-77
2023/01/14 14:35:14;;;;;;;3.30;1.40;;;;;;;;;;6244424;22;20853;-77
2023/01/14 14:37:39;;;;;;;3.23;1.20;;;;;;;;;;6241206;22;20205;-77
2023/01/14 14:40:06;;;;;;;2.33;1.20;;;;;;;;;;6243084;22;20409;-77
2023/01/14 14:42:33;;;;;;;2.70;1.00;;;;;;;;;;6243243;23;20583;-78
2023/01/14 14:44:59;;;;;;;2.80;1.20;;;;;;;;;;6245087;22;20381;-77
2023/01/14 14:47:27;;;;;;;2.70;0.90;;;;;;;;;;6241233;22;20378;-76
2023/01/14 14:49:53;;;;;;;1.30;1.00;;;;;;;;;;6241583;22;20636;-77
2023/01/14 14:52:19;;;;;;;6.07;1.30;;;;;;;;;;6243327;22;20410;-77
2023/01/14 14:54:48;;;;;;;1.47;0.93;;;;;;;;;;6240879;23;20544;-76
2023/01/14 14:57:16;;;;;;;3.30;1.10;;;;;;;;;;6242664;22;20445;-77
2023/01/14 14:59:42;;;;;;;0.90;0.70;;;;;;;;;;6242558;22;20390;-76
2023/01/14 15:02:21;;;;;;;1.43;1.10;;;;;;;;;;6242616;22;20381;-76
2023/01/14 15:04:46;;;;;;;6.00;1.00;;;;;;;;;;6241483;22;20135;-75
2023/01/14 15:07:12;;;;;;;1.63;1.03;;;;;;;;;;6240427;22;20705;-77
2023/01/14 15:09:38;;;;;;;2.23;0.80;;;;;;;;;;6243236;22;20174;-76
2023/01/14 15:12:05;;;;;;;1.83;0.70;;;;;;;;;;6242131;22;20669;-77
2023/01/14 15:14:32;;;;;;;2.30;0.70;;;;;;;;;;6242851;23;20147;-77
2023/01/14 15:16:58;;;;;;;3.40;0.90;;;;;;;;;;6241503;22;20392;-77